sensor_id;sensor_type;location;lat;lon;timestamp;P1;durP1;ratioP1;P2;durP2;ratioP2
33844;SDS011;20145;43.118;25.694;2023-03-01T00:02:20;5.07;;;4.68;;
33844;SDS011;20145;43.118;25.694;2023-03-01T00:04:45;6.28;;;4.72;;
33844;SDS011;20145;43.118;25.694;2023-03-01T00:07:12;5.38;;;4.88;;
33844;SDS011;20145;43.118;25.694;2023-03-01T00:09:37;4.78;;;4.28;;
33844;SDS011;20145;43.118;25.694;2023-03-01T00:12:03;4.95;;;4.45;;
33844;SDS011;20145;43.118;25.694;2023-03-01T00:14:29;6.18;;;4.90;;
33844;SDS011;20145;43.118;25.694;2023-03-01T00:16:55;7.93;;;4.43;;
33844;SDS011;20145;43.118;25.694;2023-03-01T00:19:20;4.90;;;4.40;;
33844;SDS011;20145;43.118;25.694;2023-03-01T00:21:47;5.13;;;4.63;;
33844;SDS011;20145;43.118;25.694;2023-03-01T00:24:13;4.45;;;4.05;;
33844;SDS011;20145;43.118;25.694;2023-03-01T00:26:40;5.65;;;4.63;;
33844;SDS011;20145;43.118;25.694;2023-03-01T00:29:05;5.20;;;4.70;;
33844;SDS011;20145;43.118;25.694;2023-03-01T00:31:32;4.95;;;4.50;;
33844;SDS011;20145;43.118;25.694;2023-03-01T00:33:59;6.70;;;5.80;;
33844;SDS011;20145;43.118;25.694;2023-03-01T00:36:33;6.90;;;5.88;;
33844;SDS011;20145;43.118;25.694;2023-03-01T00:39:01;5.15;;;4.57;;
33844;SDS011;20145;43.118;25.694;2023-03-01T00:41:29;4.80;;;4.30;;
33844;SDS011;20145;43.118;25.694;2023-03-01T00:43:54;5.00;;;4.50;;
33844;SDS011;20145;43.118;25.694;2023-03-01T00:46:21;5.20;;;4.70;;
33844;SDS011;20145;43.118;25.694;2023-03-01T00:48:49;5.40;;;4.68;;
33844;SDS011;20145;43.118;25.694;2023-03-01T00:51:16;5.72;;;4.15;;
33844;SDS011;20145;43.118;25.694;2023-03-01T00:53:46;4.70;;;4.03;;
33844;SDS011;20145;43.118;25.694;2023-03-01T00:56:13;5.55;;;4.88;;
33844;SDS011;20145;43.118;25.694;2023-03-01T00:58:40;5.18;;;4.70;;
33844;SDS011;20145;43.118;25.694;2023-03-01T01:01:16;4.70;;;4.30;;
33844;SDS011;20145;43.118;25.694;2023-03-01T01:03:48;5.15;;;4.72;;
33844;SDS011;20145;43.118;25.694;2023-03-01T01:06:26;4.95;;;4.43;;
33844;SDS011;20145;43.118;25.694;2023-03-01T01:08:54;4.28;;;3.90;;
33844;SDS011;20145;43.118;25.694;2023-03-01T01:11:21;4.57;;;4.18;;
33844;SDS011;20145;43.118;25.694;2023-03-01T01:13:48;4.82;;;3.92;;
33844;SDS011;20145;43.118;25.694;2023-03-01T01:16:15;5.10;;;4.68;;
33844;SDS011;20145;43.118;25.694;2023-03-01T01:18:43;4.30;;;3.90;;
33844;SDS011;20145;43.118;25.694;2023-03-01T01:21:10;5.03;;;4.53;;
33844;SDS011;20145;43.118;25.694;2023-03-01T01:23:38;4.88;;;4.43;;
33844;SDS011;20145;43.118;25.694;2023-03-01T01:26:05;4.57;;;4.18;;
33844;SDS011;20145;43.118;25.694;2023-03-01T01:28:33;5.00;;;4.40;;
33844;SDS011;20145;43.118;25.694;2023-03-01T01:30:59;4.28;;;3.88;;
33844;SDS011;20145;43.118;25.694;2023-03-01T01:33:24;4.20;;;3.78;;
33844;SDS011;20145;43.118;25.694;2023-03-01T01:35:50;4.25;;;3.85;;
33844;SDS011;20145;43.118;25.694;2023-03-01T01:38:16;4.25;;;3.85;;
33844;SDS011;20145;43.118;25.694;2023-03-01T01:40:45;5.47;;;4.63;;
33844;SDS011;20145;43.118;25.694;2023-03-01T01:43:25;3.90;;;3.60;;
33844;SDS011;20145;43.118;25.694;2023-03-01T01:45:54;4.60;;;3.97;;
33844;SDS011;20145;43.118;25.694;2023-03-01T01:48:26;4.65;;;4.25;;
33844;SDS011;20145;43.118;25.694;2023-03-01T01:51:14;4.53;;;4.13;;
33844;SDS011;20145;43.118;25.694;2023-03-01T01:53:45;5.18;;;4.68;;
33844;SDS011;20145;43.118;25.694;2023-03-01T01:56:16;4.43;;;4.03;;
33844;SDS011;20145;43.118;25.694;2023-03-01T01:58:43;4.28;;;3.88;;
33844;SDS011;20145;43.118;25.694;2023-03-01T02:01:10;5.30;;;4.78;;
33844;SDS011;20145;43.118;25.694;2023-03-01T02:03:37;6.43;;;5.78;;
33844;SDS011;20145;43.118;25.694;2023-03-01T02:08:59;4.18;;;3.78;;
33844;SDS011;20145;43.118;25.694;2023-03-01T02:11:37;4.55;;;4.15;;
33844;SDS011;20145;43.118;25.694;2023-03-01T02:14:03;4.57;;;4.07;;
33844;SDS011;20145;43.118;25.694;2023-03-01T02:16:30;5.10;;;4.60;;
33844;SDS011;20145;43.118;25.694;2023-03-01T02:18:56;4.13;;;3.72;;
33844;SDS011;20145;43.118;25.694;2023-03-01T02:22:13;4.28;;;3.75;;
33844;SDS011;20145;43.118;25.694;2023-03-01T02:26:52;5.57;;;4.00;;
33844;SDS011;20145;43.118;25.694;2023-03-01T02:29:22;6.32;;;3.90;;
33844;SDS011;20145;43.118;25.694;2023-03-01T02:31:49;4.63;;;3.80;;
33844;SDS011;20145;43.118;25.694;2023-03-01T02:34:23;4.53;;;4.13;;
33844;SDS011;20145;43.118;25.694;2023-03-01T02:39:26;4.07;;;3.78;;
33844;SDS011;20145;43.118;25.694;2023-03-01T02:41:59;4.28;;;3.88;;
33844;SDS011;20145;43.118;25.694;2023-03-01T02:44:27;4.22;;;3.85;;
33844;SDS011;20145;43.118;25.694;2023-03-01T02:46:54;4.38;;;3.97;;
33844;SDS011;20145;43.118;25.694;2023-03-01T02:49:25;4.47;;;4.07;;
33844;SDS011;20145;43.118;25.694;2023-03-01T02:57:08;4.10;;;3.70;;
33844;SDS011;20145;43.118;25.694;2023-03-01T02:59:34;4.60;;;4.07;;
33844;SDS011;20145;43.118;25.694;2023-03-01T03:02:07;4.30;;;3.90;;
33844;SDS011;20145;43.118;25.694;2023-03-01T03:05:02;4.88;;;3.80;;
33844;SDS011;20145;43.118;25.694;2023-03-01T03:07:36;3.97;;;3.58;;
33844;SDS011;20145;43.118;25.694;2023-03-01T03:10:05;5.47;;;4.38;;
33844;SDS011;20145;43.118;25.694;2023-03-01T03:12:32;5.03;;;4.55;;
33844;SDS011;20145;43.118;25.694;2023-03-01T03:14:58;5.28;;;4.78;;
33844;SDS011;20145;43.118;25.694;2023-03-01T03:17:23;4.95;;;4.28;;
33844;SDS011;20145;43.118;25.694;2023-03-01T03:19:49;4.90;;;4.38;;
33844;SDS011;20145;43.118;25.694;2023-03-01T03:22:15;4.90;;;4.03;;
33844;SDS011;20145;43.118;25.694;2023-03-01T03:24:40;4.82;;;4.35;;
33844;SDS011;20145;43.118;25.694;2023-03-01T03:27:06;5.60;;;4.57;;
33844;SDS011;20145;43.118;25.694;2023-03-01T03:29:32;4.30;;;3.90;;
33844;SDS011;20145;43.118;25.694;2023-03-01T03:31:58;5.78;;;5.20;;
33844;SDS011;20145;43.118;25.694;2023-03-01T03:34:24;5.50;;;5.00;;
33844;SDS011;20145;43.118;25.694;2023-03-01T03:36:56;202.45;;;119.47;;
33844;SDS011;20145;43.118;25.694;2023-03-01T03:39:24;120.65;;;70.60;;
33844;SDS011;20145;43.118;25.694;2023-03-01T03:41:54;72.80;;;44.17;;
33844;SDS011;20145;43.118;25.694;2023-03-01T03:44:20;110.20;;;81.00;;
33844;SDS011;20145;43.118;25.694;2023-03-01T03:46:46;8.32;;;7.38;;
33844;SDS011;20145;43.118;25.694;2023-03-01T03:49:12;38.40;;;32.67;;
33844;SDS011;20145;43.118;25.694;2023-03-01T03:51:37;41.30;;;36.10;;
33844;SDS011;20145;43.118;25.694;2023-03-01T03:54:03;53.50;;;45.40;;
33844;SDS011;20145;43.118;25.694;2023-03-01T03:56:28;147.63;;;111.40;;
33844;SDS011;20145;43.118;25.694;2023-03-01T03:58:54;148.95;;;129.27;;
33844;SDS011;20145;43.118;25.694;2023-03-01T04:01:19;41.55;;;36.70;;
33844;SDS011;20145;43.118;25.694;2023-03-01T04:03:45;23.67;;;20.65;;
33844;SDS011;20145;43.118;25.694;2023-03-01T04:06:19;51.30;;;46.05;;
33844;SDS011;20145;43.118;25.694;2023-03-01T04:08:45;45.10;;;40.45;;
33844;SDS011;20145;43.118;25.694;2023-03-01T04:11:10;17.73;;;15.95;;
33844;SDS011;20145;43.118;25.694;2023-03-01T04:13:52;21.70;;;19.55;;
33844;SDS011;20145;43.118;25.694;2023-03-01T04:16:19;15.32;;;13.82;;
33844;SDS011;20145;43.118;25.694;2023-03-01T04:18:45;31.55;;;28.38;;
33844;SDS011;20145;43.118;25.694;2023-03-01T04:21:11;95.75;;;86.20;;
33844;SDS011;20145;43.118;25.694;2023-03-01T04:23:37;146.05;;;131.43;;
33844;SDS011;20145;43.118;25.694;2023-03-01T04:26:03;223.88;;;201.27;;
33844;SDS011;20145;43.118;25.694;2023-03-01T04:30:55;69.82;;;62.28;;
33844;SDS011;20145;43.118;25.694;2023-03-01T04:33:22;90.80;;;81.05;;
33844;SDS011;20145;43.118;25.694;2023-03-01T04:35:48;22.45;;;20.10;;
33844;SDS011;20145;43.118;25.694;2023-03-01T04:38:15;28.80;;;25.75;;
33844;SDS011;20145;43.118;25.694;2023-03-01T04:40:41;21.88;;;19.50;;
33844;SDS011;20145;43.118;25.694;2023-03-01T04:43:09;35.97;;;32.22;;
33844;SDS011;20145;43.118;25.694;2023-03-01T04:45:35;21.75;;;19.33;;
33844;SDS011;20145;43.118;25.694;2023-03-01T04:48:02;10.13;;;8.93;;
33844;SDS011;20145;43.118;25.694;2023-03-01T04:50:28;18.23;;;16.27;;
33844;SDS011;20145;43.118;25.694;2023-03-01T04:52:54;22.58;;;16.45;;
33844;SDS011;20145;43.118;25.694;2023-03-01T04:55:24;35.88;;;13.18;;
33844;SDS011;20145;43.118;25.694;2023-03-01T04:57:51;27.77;;;15.48;;
33844;SDS011;20145;43.118;25.694;2023-03-01T05:00:16;17.38;;;14.20;;
33844;SDS011;20145;43.118;25.694;2023-03-01T05:02:48;15.88;;;12.93;;
33844;SDS011;20145;43.118;25.694;2023-03-01T05:05:19;13.05;;;11.70;;
33844;SDS011;20145;43.118;25.694;2023-03-01T05:07:46;12.77;;;10.73;;
33844;SDS011;20145;43.118;25.694;2023-03-01T05:10:12;12.32;;;9.60;;
33844;SDS011;20145;43.118;25.694;2023-03-01T05:12:37;19.85;;;17.80;;
33844;SDS011;20145;43.118;25.694;2023-03-01T05:15:03;15.65;;;13.93;;
33844;SDS011;20145;43.118;25.694;2023-03-01T05:17:32;15.30;;;13.70;;
33844;SDS011;20145;43.118;25.694;2023-03-01T05:19:59;13.57;;;12.20;;
33844;SDS011;20145;43.118;25.694;2023-03-01T05:22:25;13.27;;;11.98;;
33844;SDS011;20145;43.118;25.694;2023-03-01T05:24:51;21.73;;;19.42;;
33844;SDS011;20145;43.118;25.694;2023-03-01T05:27:19;22.45;;;19.95;;
33844;SDS011;20145;43.118;25.694;2023-03-01T05:29:47;40.80;;;36.55;;
33844;SDS011;20145;43.118;25.694;2023-03-01T05:32:13;28.35;;;25.38;;
33844;SDS011;20145;43.118;25.694;2023-03-01T05:34:41;20.35;;;18.13;;
33844;SDS011;20145;43.118;25.694;2023-03-01T05:37:07;15.88;;;14.18;;
33844;SDS011;20145;43.118;25.694;2023-03-01T05:39:33;19.63;;;17.63;;
33844;SDS011;20145;43.118;25.694;2023-03-01T05:41:59;30.08;;;27.00;;
33844;SDS011;20145;43.118;25.694;2023-03-01T05:44:27;24.83;;;22.08;;
33844;SDS011;20145;43.118;25.694;2023-03-01T05:46:54;29.58;;;26.52;;
33844;SDS011;20145;43.118;25.694;2023-03-01T05:49:20;12.63;;;11.43;;
33844;SDS011;20145;43.118;25.694;2023-03-01T05:51:50;21.95;;;19.77;;
33844;SDS011;20145;43.118;25.694;2023-03-01T05:54:17;23.33;;;21.05;;
33844;SDS011;20145;43.118;25.694;2023-03-01T05:56:43;24.73;;;22.33;;
33844;SDS011;20145;43.118;25.694;2023-03-01T05:59:09;13.82;;;12.40;;
33844;SDS011;20145;43.118;25.694;2023-03-01T06:01:36;55.45;;;45.08;;
33844;SDS011;20145;43.118;25.694;2023-03-01T06:04:02;9.70;;;8.40;;
33844;SDS011;20145;43.118;25.694;2023-03-01T06:06:29;30.52;;;25.83;;
33844;SDS011;20145;43.118;25.694;2023-03-01T06:08:58;45.80;;;37.38;;
33844;SDS011;20145;43.118;25.694;2023-03-01T06:11:23;22.95;;;18.27;;
33844;SDS011;20145;43.118;25.694;2023-03-01T06:13:49;60.95;;;48.03;;
33844;SDS011;20145;43.118;25.694;2023-03-01T06:16:14;26.52;;;22.58;;
33844;SDS011;20145;43.118;25.694;2023-03-01T06:18:40;20.70;;;17.13;;
33844;SDS011;20145;43.118;25.694;2023-03-01T06:21:07;18.50;;;15.95;;
33844;SDS011;20145;43.118;25.694;2023-03-01T06:23:34;11.35;;;10.18;;
33844;SDS011;20145;43.118;25.694;2023-03-01T06:26:04;15.55;;;13.65;;
33844;SDS011;20145;43.118;25.694;2023-03-01T06:28:31;16.27;;;13.23;;
33844;SDS011;20145;43.118;25.694;2023-03-01T06:30:56;17.17;;;15.48;;
33844;SDS011;20145;43.118;25.694;2023-03-01T06:33:22;15.07;;;11.93;;
33844;SDS011;20145;43.118;25.694;2023-03-01T06:35:49;13.60;;;12.18;;
33844;SDS011;20145;43.118;25.694;2023-03-01T06:38:16;8.63;;;7.72;;
33844;SDS011;20145;43.118;25.694;2023-03-01T06:40:44;7.55;;;6.15;;
33844;SDS011;20145;43.118;25.694;2023-03-01T06:43:09;6.75;;;5.18;;
33844;SDS011;20145;43.118;25.694;2023-03-01T06:45:35;9.77;;;6.90;;
33844;SDS011;20145;43.118;25.694;2023-03-01T06:48:03;7.53;;;6.82;;
33844;SDS011;20145;43.118;25.694;2023-03-01T06:50:29;7.03;;;4.68;;
33844;SDS011;20145;43.118;25.694;2023-03-01T06:52:56;7.85;;;5.80;;
33844;SDS011;20145;43.118;25.694;2023-03-01T06:55:22;16.88;;;9.57;;
33844;SDS011;20145;43.118;25.694;2023-03-01T06:57:48;8.77;;;6.80;;
33844;SDS011;20145;43.118;25.694;2023-03-01T07:00:13;7.28;;;5.22;;
33844;SDS011;20145;43.118;25.694;2023-03-01T07:02:39;7.90;;;5.07;;
33844;SDS011;20145;43.118;25.694;2023-03-01T07:05:05;4.47;;;3.72;;
33844;SDS011;20145;43.118;25.694;2023-03-01T07:07:31;7.25;;;4.90;;
33844;SDS011;20145;43.118;25.694;2023-03-01T07:09:57;10.60;;;6.57;;
33844;SDS011;20145;43.118;25.694;2023-03-01T07:12:23;12.35;;;7.63;;
33844;SDS011;20145;43.118;25.694;2023-03-01T07:14:48;6.72;;;4.05;;
33844;SDS011;20145;43.118;25.694;2023-03-01T07:17:14;9.77;;;5.57;;
33844;SDS011;20145;43.118;25.694;2023-03-01T07:19:39;9.07;;;5.40;;
33844;SDS011;20145;43.118;25.694;2023-03-01T07:22:05;7.32;;;4.65;;
33844;SDS011;20145;43.118;25.694;2023-03-01T07:24:33;5.07;;;4.57;;
33844;SDS011;20145;43.118;25.694;2023-03-01T07:26:59;14.10;;;4.93;;
33844;SDS011;20145;43.118;25.694;2023-03-01T07:29:24;7.75;;;5.15;;
33844;SDS011;20145;43.118;25.694;2023-03-01T07:31:50;5.95;;;4.35;;
33844;SDS011;20145;43.118;25.694;2023-03-01T07:34:15;10.55;;;6.82;;
33844;SDS011;20145;43.118;25.694;2023-03-01T07:36:41;10.43;;;7.82;;
33844;SDS011;20145;43.118;25.694;2023-03-01T07:39:09;15.40;;;10.77;;
33844;SDS011;20145;43.118;25.694;2023-03-01T07:41:35;9.13;;;6.93;;
33844;SDS011;20145;43.118;25.694;2023-03-01T07:44:01;10.82;;;9.43;;
33844;SDS011;20145;43.118;25.694;2023-03-01T07:46:26;10.13;;;7.80;;
33844;SDS011;20145;43.118;25.694;2023-03-01T07:48:52;7.55;;;5.97;;
33844;SDS011;20145;43.118;25.694;2023-03-01T07:51:17;6.13;;;5.22;;
33844;SDS011;20145;43.118;25.694;2023-03-01T07:53:45;8.48;;;6.38;;
33844;SDS011;20145;43.118;25.694;2023-03-01T07:56:12;12.00;;;7.10;;
33844;SDS011;20145;43.118;25.694;2023-03-01T07:58:41;10.60;;;8.60;;
33844;SDS011;20145;43.118;25.694;2023-03-01T08:01:08;10.10;;;8.50;;
33844;SDS011;20145;43.118;25.694;2023-03-01T08:03:35;10.35;;;9.13;;
33844;SDS011;20145;43.118;25.694;2023-03-01T08:06:02;8.85;;;6.60;;
33844;SDS011;20145;43.118;25.694;2023-03-01T08:08:29;7.70;;;5.20;;
33844;SDS011;20145;43.118;25.694;2023-03-01T08:11:01;8.40;;;7.35;;
33844;SDS011;20145;43.118;25.694;2023-03-01T08:13:29;9.75;;;7.28;;
33844;SDS011;20145;43.118;25.694;2023-03-01T08:16:00;8.25;;;6.60;;
33844;SDS011;20145;43.118;25.694;2023-03-01T08:18:30;9.40;;;7.35;;
33844;SDS011;20145;43.118;25.694;2023-03-01T08:21:00;9.68;;;6.65;;
33844;SDS011;20145;43.118;25.694;2023-03-01T08:23:29;8.70;;;5.93;;
33844;SDS011;20145;43.118;25.694;2023-03-01T08:25:57;8.32;;;5.72;;
33844;SDS011;20145;43.118;25.694;2023-03-01T08:28:31;9.20;;;7.93;;
33844;SDS011;20145;43.118;25.694;2023-03-01T08:30:57;9.73;;;6.72;;
33844;SDS011;20145;43.118;25.694;2023-03-01T08:33:23;7.05;;;6.32;;
33844;SDS011;20145;43.118;25.694;2023-03-01T08:35:48;10.68;;;4.57;;
33844;SDS011;20145;43.118;25.694;2023-03-01T08:38:14;9.27;;;7.57;;
33844;SDS011;20145;43.118;25.694;2023-03-01T08:40:39;17.35;;;15.50;;
33844;SDS011;20145;43.118;25.694;2023-03-01T08:43:05;12.32;;;10.13;;
33844;SDS011;20145;43.118;25.694;2023-03-01T08:45:31;11.05;;;8.95;;
33844;SDS011;20145;43.118;25.694;2023-03-01T08:47:56;9.15;;;5.82;;
33844;SDS011;20145;43.118;25.694;2023-03-01T08:50:22;8.20;;;6.50;;
33844;SDS011;20145;43.118;25.694;2023-03-01T08:52:49;15.57;;;9.57;;
33844;SDS011;20145;43.118;25.694;2023-03-01T08:55:15;17.35;;;10.85;;
33844;SDS011;20145;43.118;25.694;2023-03-01T08:57:42;10.35;;;7.45;;
33844;SDS011;20145;43.118;25.694;2023-03-01T09:00:09;12.85;;;9.45;;
33844;SDS011;20145;43.118;25.694;2023-03-01T09:02:36;8.00;;;5.55;;
33844;SDS011;20145;43.118;25.694;2023-03-01T09:05:02;6.43;;;4.43;;
33844;SDS011;20145;43.118;25.694;2023-03-01T09:07:27;5.55;;;4.50;;
33844;SDS011;20145;43.118;25.694;2023-03-01T09:09:53;6.68;;;4.93;;
33844;SDS011;20145;43.118;25.694;2023-03-01T09:12:20;8.75;;;6.30;;
33844;SDS011;20145;43.118;25.694;2023-03-01T09:14:46;9.68;;;7.35;;
33844;SDS011;20145;43.118;25.694;2023-03-01T09:17:12;8.95;;;7.20;;
33844;SDS011;20145;43.118;25.694;2023-03-01T09:19:37;10.32;;;7.03;;
33844;SDS011;20145;43.118;25.694;2023-03-01T09:22:03;9.35;;;5.38;;
33844;SDS011;20145;43.118;25.694;2023-03-01T09:24:29;8.18;;;6.68;;
33844;SDS011;20145;43.118;25.694;2023-03-01T09:26:55;7.75;;;5.95;;
33844;SDS011;20145;43.118;25.694;2023-03-01T09:29:22;9.40;;;5.93;;
33844;SDS011;20145;43.118;25.694;2023-03-01T09:31:48;9.82;;;5.75;;
33844;SDS011;20145;43.118;25.694;2023-03-01T09:34:14;7.50;;;5.22;;
33844;SDS011;20145;43.118;25.694;2023-03-01T09:36:41;9.25;;;5.22;;
33844;SDS011;20145;43.118;25.694;2023-03-01T09:39:06;7.75;;;6.72;;
33844;SDS011;20145;43.118;25.694;2023-03-01T09:44:49;7.15;;;4.85;;
33844;SDS011;20145;43.118;25.694;2023-03-01T09:47:24;7.63;;;5.65;;
33844;SDS011;20145;43.118;25.694;2023-03-01T09:50:15;8.13;;;5.40;;
33844;SDS011;20145;43.118;25.694;2023-03-01T10:00:49;9.00;;;6.40;;
33844;SDS011;20145;43.118;25.694;2023-03-01T10:03:23;6.95;;;5.30;;
33844;SDS011;20145;43.118;25.694;2023-03-01T10:06:04;6.68;;;4.35;;
33844;SDS011;20145;43.118;25.694;2023-03-01T10:08:38;5.15;;;4.65;;
33844;SDS011;20145;43.118;25.694;2023-03-01T10:11:21;5.97;;;4.75;;
33844;SDS011;20145;43.118;25.694;2023-03-01T10:21:40;10.98;;;6.30;;
33844;SDS011;20145;43.118;25.694;2023-03-01T10:24:13;19.65;;;11.23;;
33844;SDS011;20145;43.118;25.694;2023-03-01T10:26:47;11.95;;;5.75;;
33844;SDS011;20145;43.118;25.694;2023-03-01T10:29:21;26.40;;;12.45;;
33844;SDS011;20145;43.118;25.694;2023-03-01T10:31:51;31.10;;;14.13;;
33844;SDS011;20145;43.118;25.694;2023-03-01T10:34:20;16.00;;;10.55;;
33844;SDS011;20145;43.118;25.694;2023-03-01T10:36:58;18.95;;;13.52;;
33844;SDS011;20145;43.118;25.694;2023-03-01T10:39:33;12.90;;;8.57;;
33844;SDS011;20145;43.118;25.694;2023-03-01T10:42:00;5.95;;;4.60;;
33844;SDS011;20145;43.118;25.694;2023-03-01T10:44:37;7.70;;;5.47;;
33844;SDS011;20145;43.118;25.694;2023-03-01T10:47:22;13.48;;;4.30;;
33844;SDS011;20145;43.118;25.694;2023-03-01T10:49:53;21.27;;;13.30;;
33844;SDS011;20145;43.118;25.694;2023-03-01T10:52:55;17.02;;;11.93;;
33844;SDS011;20145;43.118;25.694;2023-03-01T10:55:37;8.10;;;5.60;;
33844;SDS011;20145;43.118;25.694;2023-03-01T10:58:21;9.50;;;4.78;;
33844;SDS011;20145;43.118;25.694;2023-03-01T11:00:49;7.38;;;5.13;;
33844;SDS011;20145;43.118;25.694;2023-03-01T11:03:28;6.63;;;4.90;;
33844;SDS011;20145;43.118;25.694;2023-03-01T11:06:41;6.95;;;4.40;;
33844;SDS011;20145;43.118;25.694;2023-03-01T11:08:48;6.05;;;4.30;;
33844;SDS011;20145;43.118;25.694;2023-03-01T11:11:19;7.75;;;5.63;;
33844;SDS011;20145;43.118;25.694;2023-03-01T11:16:38;13.00;;;9.85;;
33844;SDS011;20145;43.118;25.694;2023-03-01T11:21:34;8.75;;;6.80;;
33844;SDS011;20145;43.118;25.694;2023-03-01T11:24:12;14.07;;;9.18;;
33844;SDS011;20145;43.118;25.694;2023-03-01T11:26:43;11.13;;;7.35;;
33844;SDS011;20145;43.118;25.694;2023-03-01T11:29:55;9.50;;;7.38;;
33844;SDS011;20145;43.118;25.694;2023-03-01T11:32:05;7.85;;;6.72;;
33844;SDS011;20145;43.118;25.694;2023-03-01T11:37:22;7.85;;;6.40;;
33844;SDS011;20145;43.118;25.694;2023-03-01T11:40:05;18.05;;;13.93;;
33844;SDS011;20145;43.118;25.694;2023-03-01T11:45:39;8.00;;;6.82;;
33844;SDS011;20145;43.118;25.694;2023-03-01T11:48:35;6.50;;;5.57;;
33844;SDS011;20145;43.118;25.694;2023-03-01T11:51:19;8.15;;;6.13;;
33844;SDS011;20145;43.118;25.694;2023-03-01T12:00:13;11.25;;;6.38;;
33844;SDS011;20145;43.118;25.694;2023-03-01T12:05:54;8.95;;;6.13;;
33844;SDS011;20145;43.118;25.694;2023-03-01T12:21:50;13.35;;;9.50;;
33844;SDS011;20145;43.118;25.694;2023-03-01T12:24:26;17.38;;;10.52;;
33844;SDS011;20145;43.118;25.694;2023-03-01T12:27:13;13.60;;;9.52;;
33844;SDS011;20145;43.118;25.694;2023-03-01T12:32:55;15.73;;;9.68;;
33844;SDS011;20145;43.118;25.694;2023-03-01T12:38:33;9.93;;;8.00;;
33844;SDS011;20145;43.118;25.694;2023-03-01T12:49:18;10.65;;;7.15;;
33844;SDS011;20145;43.118;25.694;2023-03-01T12:51:54;11.55;;;7.90;;
33844;SDS011;20145;43.118;25.694;2023-03-01T12:54:27;9.60;;;7.38;;
33844;SDS011;20145;43.118;25.694;2023-03-01T12:56:57;8.90;;;7.20;;
33844;SDS011;20145;43.118;25.694;2023-03-01T12:59:31;13.93;;;8.65;;
33844;SDS011;20145;43.118;25.694;2023-03-01T13:02:12;11.32;;;7.90;;
33844;SDS011;20145;43.118;25.694;2023-03-01T13:07:38;10.85;;;8.25;;
33844;SDS011;20145;43.118;25.694;2023-03-01T13:12:52;10.88;;;8.05;;
33844;SDS011;20145;43.118;25.694;2023-03-01T13:17:49;14.48;;;11.07;;
33844;SDS011;20145;43.118;25.694;2023-03-01T13:20:18;13.77;;;9.50;;
33844;SDS011;20145;43.118;25.694;2023-03-01T13:22:46;18.08;;;12.35;;
33844;SDS011;20145;43.118;25.694;2023-03-01T13:25:14;18.33;;;12.20;;
33844;SDS011;20145;43.118;25.694;2023-03-01T13:27:43;14.15;;;9.43;;
33844;SDS011;20145;43.118;25.694;2023-03-01T13:35:57;12.77;;;8.35;;
33844;SDS011;20145;43.118;25.694;2023-03-01T13:38:44;11.10;;;8.80;;
33844;SDS011;20145;43.118;25.694;2023-03-01T13:46:47;17.67;;;10.95;;
33844;SDS011;20145;43.118;25.694;2023-03-01T13:49:14;13.15;;;11.23;;
33844;SDS011;20145;43.118;25.694;2023-03-01T13:51:46;18.50;;;12.68;;
33844;SDS011;20145;43.118;25.694;2023-03-01T13:54:13;18.77;;;13.07;;
33844;SDS011;20145;43.118;25.694;2023-03-01T13:56:41;16.92;;;11.00;;
33844;SDS011;20145;43.118;25.694;2023-03-01T13:59:18;18.27;;;10.45;;
33844;SDS011;20145;43.118;25.694;2023-03-01T14:01:56;16.05;;;11.45;;
33844;SDS011;20145;43.118;25.694;2023-03-01T14:04:24;20.88;;;14.43;;
33844;SDS011;20145;43.118;25.694;2023-03-01T14:09:45;25.15;;;16.98;;
33844;SDS011;20145;43.118;25.694;2023-03-01T14:17:22;21.65;;;15.82;;
33844;SDS011;20145;43.118;25.694;2023-03-01T14:20:16;23.38;;;17.02;;
33844;SDS011;20145;43.118;25.694;2023-03-01T14:22:44;18.13;;;12.73;;
33844;SDS011;20145;43.118;25.694;2023-03-01T14:25:45;16.00;;;13.23;;
33844;SDS011;20145;43.118;25.694;2023-03-01T14:28:14;18.25;;;12.52;;
33844;SDS011;20145;43.118;25.694;2023-03-01T14:30:43;18.27;;;13.07;;
33844;SDS011;20145;43.118;25.694;2023-03-01T14:33:20;22.23;;;14.10;;
33844;SDS011;20145;43.118;25.694;2023-03-01T14:35:59;18.08;;;13.18;;
33844;SDS011;20145;43.118;25.694;2023-03-01T14:40:56;15.60;;;11.93;;
33844;SDS011;20145;43.118;25.694;2023-03-01T14:43:26;19.40;;;11.93;;
33844;SDS011;20145;43.118;25.694;2023-03-01T14:45:54;16.38;;;11.63;;
33844;SDS011;20145;43.118;25.694;2023-03-01T14:48:20;16.30;;;10.65;;
33844;SDS011;20145;43.118;25.694;2023-03-01T14:50:46;20.83;;;13.23;;
33844;SDS011;20145;43.118;25.694;2023-03-01T14:53:23;15.45;;;12.80;;
33844;SDS011;20145;43.118;25.694;2023-03-01T14:55:52;20.38;;;13.88;;
33844;SDS011;20145;43.118;25.694;2023-03-01T14:58:27;22.30;;;15.82;;
33844;SDS011;20145;43.118;25.694;2023-03-01T15:01:00;20.08;;;14.60;;
33844;SDS011;20145;43.118;25.694;2023-03-01T15:03:35;25.92;;;15.77;;
33844;SDS011;20145;43.118;25.694;2023-03-01T15:06:03;21.58;;;15.35;;
33844;SDS011;20145;43.118;25.694;2023-03-01T15:08:30;21.15;;;13.43;;
33844;SDS011;20145;43.118;25.694;2023-03-01T15:11:04;22.92;;;14.48;;
33844;SDS011;20145;43.118;25.694;2023-03-01T15:13:42;22.83;;;14.45;;
33844;SDS011;20145;43.118;25.694;2023-03-01T15:16:18;31.42;;;19.83;;
33844;SDS011;20145;43.118;25.694;2023-03-01T15:18:45;17.77;;;12.30;;
33844;SDS011;20145;43.118;25.694;2023-03-01T15:26:43;17.65;;;13.10;;
33844;SDS011;20145;43.118;25.694;2023-03-01T15:29:16;87.25;;;20.33;;
33844;SDS011;20145;43.118;25.694;2023-03-01T15:31:52;47.25;;;13.75;;
33844;SDS011;20145;43.118;25.694;2023-03-01T15:36:49;19.08;;;13.38;;
33844;SDS011;20145;43.118;25.694;2023-03-01T15:42:12;18.73;;;13.75;;
33844;SDS011;20145;43.118;25.694;2023-03-01T15:44:40;34.78;;;28.45;;
33844;SDS011;20145;43.118;25.694;2023-03-01T15:49:56;21.92;;;17.92;;
33844;SDS011;20145;43.118;25.694;2023-03-01T15:52:25;21.25;;;16.60;;
33844;SDS011;20145;43.118;25.694;2023-03-01T15:55:00;18.67;;;14.82;;
33844;SDS011;20145;43.118;25.694;2023-03-01T15:57:28;20.13;;;15.10;;
33844;SDS011;20145;43.118;25.694;2023-03-01T15:59:53;21.00;;;13.68;;
33844;SDS011;20145;43.118;25.694;2023-03-01T16:02:19;23.35;;;15.90;;
33844;SDS011;20145;43.118;25.694;2023-03-01T16:04:46;19.45;;;14.32;;
33844;SDS011;20145;43.118;25.694;2023-03-01T16:07:14;23.58;;;18.58;;
33844;SDS011;20145;43.118;25.694;2023-03-01T16:09:39;27.65;;;20.88;;
33844;SDS011;20145;43.118;25.694;2023-03-01T16:12:05;23.92;;;19.45;;
33844;SDS011;20145;43.118;25.694;2023-03-01T16:14:33;25.88;;;19.98;;
33844;SDS011;20145;43.118;25.694;2023-03-01T16:17:00;30.60;;;20.60;;
33844;SDS011;20145;43.118;25.694;2023-03-01T16:19:25;41.47;;;25.10;;
33844;SDS011;20145;43.118;25.694;2023-03-01T16:21:51;45.67;;;32.70;;
33844;SDS011;20145;43.118;25.694;2023-03-01T16:24:16;18.95;;;15.18;;
33844;SDS011;20145;43.118;25.694;2023-03-01T16:26:42;21.95;;;17.45;;
33844;SDS011;20145;43.118;25.694;2023-03-01T16:29:07;22.85;;;16.98;;
33844;SDS011;20145;43.118;25.694;2023-03-01T16:31:33;22.20;;;15.13;;
33844;SDS011;20145;43.118;25.694;2023-03-01T16:33:59;25.38;;;19.15;;
33844;SDS011;20145;43.118;25.694;2023-03-01T16:36:25;28.15;;;18.48;;
33844;SDS011;20145;43.118;25.694;2023-03-01T16:38:53;24.25;;;18.63;;
33844;SDS011;20145;43.118;25.694;2023-03-01T16:41:21;21.65;;;16.33;;